Time;durP1;ratioP1;P1;durP2;ratioP2;P2;SDS_P1;SDS_P2;PMS_P1;PMS_P2;Temp;Humidity;BMP_temperature;BMP_pressure;BME280_temperature;BME280_humidity;BME280_pressure;Samples;Min_cycle;Max_cycle;Signal;HPM_P1;HPM_P2
2021/10/10 00:02:14;;;;;;;19.67;14.43;;;;;;;6.70;63.90;101079.91;10386088;28;20049;-67
2021/10/10 00:07:16;;;;;;;19.13;13.82;;;;;;;6.58;64.27;101075.03;10387226;28;20508;-67
2021/10/10 00:12:18;;;;;;;19.00;12.88;;;;;;;6.64;64.01;101077.47;10385284;28;20053;-67
2021/10/10 00:17:20;;;;;;;18.80;12.90;;;;;;;6.55;64.05;101067.31;10387573;28;20068;-67
2021/10/10 00:22:21;;;;;;;17.63;12.63;;;;;;;6.52;64.30;101077.78;10384620;28;20087;-67
2021/10/10 00:27:23;;;;;;;17.58;12.63;;;;;;;6.51;64.09;101076.91;10387488;28;20554;-67
2021/10/10 00:32:25;;;;;;;18.88;12.60;;;;;;;6.18;63.68;101081.19;10386595;28;20060;-67
2021/10/10 00:37:27;;;;;;;23.45;14.27;;;;;;;5.97;64.25;101075.63;10386673;28;20832;-67
2021/10/10 00:42:29;;;;;;;20.70;13.45;;;;;;;5.94;64.54;101079.13;10384711;28;20060;-67
2021/10/10 00:47:30;;;;;;;21.98;14.10;;;;;;;5.92;64.66;101074.88;10385823;28;20052;-67
2021/10/10 00:52:38;;;;;;;21.48;13.45;;;;;;;5.97;64.65;101078.22;10384900;28;20367;-67
2021/10/10 00:57:47;;;;;;;16.83;12.70;;;;;;;5.93;64.76;101073.97;10382864;28;20049;-67
2021/10/10 01:02:55;;;;;;;21.58;13.43;;;;;;;5.89;64.16;101070.59;10385203;28;20053;-67
2021/10/10 01:07:57;;;;;;;17.85;13.73;;;;;;;5.65;64.57;101081.53;10385600;28;20046;-67
2021/10/10 01:12:59;;;;;;;19.90;13.27;;;;;;;5.59;64.79;101071.28;10384365;28;20150;-69
2021/10/10 01:18:00;;;;;;;20.30;13.70;;;;;;;5.54;64.71;101067.91;10382288;28;20056;-67
2021/10/10 01:23:02;;;;;;;19.65;13.23;;;;;;;5.59;64.81;101055.72;10385143;28;20229;-67
2021/10/10 01:28:04;;;;;;;19.73;14.25;;;;;;;5.59;64.72;101050.53;10383605;28;20068;-67
2021/10/10 01:33:11;;;;;;;19.85;13.20;;;;;;;5.63;64.53;101049.56;10383188;28;20049;-67
2021/10/10 01:38:18;;;;;;;20.13;13.00;;;;;;;5.61;64.56;101048.75;10384913;28;20164;-67
2021/10/10 01:43:20;;;;;;;21.58;12.63;;;;;;;5.54;64.50;101057.53;10384001;28;20141;-67
2021/10/10 01:48:21;;;;;;;16.70;12.43;;;;;;;5.52;64.30;101054.13;10385680;28;20049;-67
2021/10/10 01:53:23;;;;;;;20.45;14.85;;;;;;;5.25;64.19;101054.69;10382428;28;20072;-67
2021/10/10 01:58:25;;;;;;;19.55;13.18;;;;;;;5.14;64.83;101052.34;10384689;28;20085;-67
2021/10/10 02:03:27;;;;;;;18.05;12.48;;;;;;;5.18;64.74;101043.59;10390271;28;20052;-67
2021/10/10 02:08:29;;;;;;;18.23;12.88;;;;;;;5.17;64.77;101041.03;10391843;28;20049;-66
2021/10/10 02:13:30;;;;;;;16.30;12.52;;;;;;;5.22;64.47;101044.38;10391461;28;20061;-67
2021/10/10 02:18:32;;;;;;;16.90;12.68;;;;;;;5.22;64.20;101041.78;10374747;28;20417;-67
2021/10/10 02:23:34;;;;;;;18.10;11.88;;;;;;;5.17;64.22;101039.28;10392023;28;20049;-67
2021/10/10 02:28:35;;;;;;;17.80;12.80;;;;;;;5.11;63.99;101038.56;10391709;28;20049;-67
2021/10/10 02:33:37;;;;;;;28.13;15.80;;;;;;;4.84;64.01;101036.50;10390696;28;20067;-67
2021/10/10 02:38:39;;;;;;;19.88;13.95;;;;;;;4.82;64.39;101035.69;10391074;28;20320;-67
2021/10/10 02:43:41;;;;;;;39.47;14.30;;;;;;;4.87;64.46;101032.13;10389954;28;20048;-67
2021/10/10 02:48:42;;;;;;;24.50;14.18;;;;;;;4.85;64.54;101033.03;10390536;28;20050;-67
2021/10/10 02:53:44;;;;;;;25.45;14.25;;;;;;;4.83;64.31;101021.81;10391288;28;20115;-67
2021/10/10 02:58:45;;;;;;;32.95;11.05;;;;;;;4.78;64.33;101034.03;10391989;28;20047;-67
2021/10/10 03:03:47;;;;;;;39.78;11.25;;;;;;;4.76;64.38;101025.44;10390488;28;20060;-67
2021/10/10 03:08:49;;;;;;;12.13;9.50;;;;;;;4.76;64.39;101025.44;10394849;28;20056;-67
2021/10/10 03:13:51;;;;;;;53.83;12.57;;;;;;;4.75;63.99;101024.56;10390937;28;20057;-67
2021/10/10 03:18:52;;;;;;;249.48;15.82;;;;;;;4.63;64.02;101019.63;10392788;28;20045;-67
2021/10/10 03:23:54;;;;;;;300.10;15.57;;;;;;;4.49;64.08;101017.28;10391037;28;20067;-67
2021/10/10 03:28:56;;;;;;;463.30;20.38;;;;;;;4.41;64.22;101023.47;10391770;28;20049;-67
2021/10/10 03:33:57;;;;;;;212.18;13.85;;;;;;;4.39;64.69;101014.88;10391064;28;20060;-67
2021/10/10 03:38:59;;;;;;;296.98;15.88;;;;;;;4.26;63.74;101018.53;10391768;28;20827;-68
2021/10/10 03:44:01;;;;;;;286.92;16.20;;;;;;;3.96;64.46;101017.31;10390741;28;20045;-67
2021/10/10 03:49:03;;;;;;;142.43;14.30;;;;;;;4.01;65.16;101012.91;10391684;28;20049;-67
2021/10/10 03:59:16;;;;;;;507.45;22.42;;;;;;;3.97;65.03;101018.16;10390515;28;20058;-67
2021/10/10 04:04:18;;;;;;;457.10;20.63;;;;;;;4.05;65.21;101027.50;10391144;28;20059;-67
2021/10/10 04:09:19;;;;;;;461.80;18.83;;;;;;;3.98;64.99;101025.91;10390208;28;20045;-67
2021/10/10 04:14:21;;;;;;;742.95;28.48;;;;;;;3.80;65.20;101034.75;10388234;28;20067;-67
2021/10/10 04:19:23;;;;;;;597.50;21.55;;;;;;;3.74;65.78;101039.19;10390612;28;20056;-67
2021/10/10 04:24:25;;;;;;;581.33;24.35;;;;;;;3.72;65.50;101040.94;10388150;28;20307;-67
2021/10/10 04:29:26;;;;;;;634.22;27.55;;;;;;;3.63;65.78;101048.81;10389745;28;20055;-67
2021/10/10 04:34:29;;;;;;;219.80;17.13;;;;;;;3.70;65.99;101040.13;10389702;28;20049;-68
2021/10/10 04:39:30;;;;;;;508.83;22.40;;;;;;;3.96;65.57;101053.56;10389194;28;20045;-67
2021/10/10 04:44:33;;;;;;;313.20;16.95;;;;;;;4.08;65.67;101044.75;10389085;28;20059;-67
2021/10/10 04:49:35;;;;;;;633.53;22.90;;;;;;;4.14;65.41;101048.09;10389120;28;20501;-67
2021/10/10 04:54:36;;;;;;;646.40;25.73;;;;;;;4.20;65.09;101037.63;10389000;28;20550;-67
2021/10/10 04:59:38;;;;;;;244.43;16.17;;;;;;;3.96;65.53;101038.03;10387507;28;20510;-67
2021/10/10 05:04:39;;;;;;;639.50;21.67;;;;;;;4.04;65.72;101030.13;10387698;28;20055;-68
2021/10/10 05:09:41;;;;;;;806.85;32.80;;;;;;;4.11;65.29;101024.81;10387292;28;20057;-67
2021/10/10 05:14:44;;;;;;;506.27;19.42;;;;;;;4.07;65.39;101030.09;10386274;28;20700;-67
2021/10/10 05:19:46;;;;;;;403.50;20.73;;;;;;;4.13;65.53;101030.00;10387619;28;20051;-68
2021/10/10 05:24:47;;;;;;;645.67;26.33;;;;;;;4.18;65.29;101031.63;10387733;28;20494;-67
2021/10/10 05:29:49;;;;;;;223.27;15.98;;;;;;;4.28;65.51;101029.72;10385536;28;20072;-68
2021/10/10 05:34:51;;;;;;;386.00;19.45;;;;;;;4.38;65.24;101031.28;10386356;28;20053;-67
2021/10/10 05:39:52;;;;;;;369.25;17.38;;;;;;;4.28;65.11;101025.41;10384996;28;20726;-67
2021/10/10 05:44:54;;;;;;;351.25;17.17;;;;;;;4.29;65.24;101021.94;10384749;28;20059;-67
2021/10/10 05:49:56;;;;;;;729.20;27.27;;;;;;;4.22;65.11;101022.94;10385953;28;20140;-67
2021/10/10 05:54:57;;;;;;;638.33;26.45;;;;;;;4.09;65.40;101025.75;10386392;28;20053;-67
2021/10/10 06:00:03;;;;;;;562.00;24.17;;;;;;;4.16;65.43;101030.81;10385826;28;20056;-67
2021/10/10 06:05:05;;;;;;;407.63;20.15;;;;;;;4.11;65.70;101021.41;10385679;28;20041;-67
2021/10/10 06:10:07;;;;;;;344.50;18.48;;;;;;;4.23;65.33;101027.22;10385760;28;20049;-67
2021/10/10 06:15:10;;;;;;;466.15;21.70;;;;;;;4.36;65.31;101026.13;10385191;28;20061;-67
2021/10/10 06:20:11;;;;;;;194.45;15.85;;;;;;;4.52;65.05;101025.00;10385272;28;20194;-67
2021/10/10 06:25:15;;;;;;;212.75;16.95;;;;;;;4.49;65.05;101025.06;10385079;28;20412;-67
2021/10/10 06:30:17;;;;;;;330.20;19.95;;;;;;;4.62;64.85;101021.34;10385333;28;20045;-67
2021/10/10 06:35:18;;;;;;;229.43;18.35;;;;;;;4.66;64.63;101027.31;10384075;28;20057;-67
2021/10/10 06:40:20;;;;;;;187.25;16.13;;;;;;;4.82;64.59;101028.75;10383967;28;20092;-67
2021/10/10 06:45:22;;;;;;;401.55;20.25;;;;;;;4.70;64.23;101039.34;10384280;28;20289;-67
2021/10/10 06:50:23;;;;;;;464.88;21.85;;;;;;;4.88;64.07;101027.78;10384434;28;20490;-67
2021/10/10 06:55:25;;;;;;;665.95;29.50;;;;;;;4.98;63.58;101035.38;10384844;28;20053;-67
2021/10/10 07:00:27;;;;;;;487.95;22.38;;;;;;;4.88;63.57;101043.34;10383615;28;20053;-67
2021/10/10 07:05:28;;;;;;;384.00;20.10;;;;;;;4.84;64.24;101052.91;10383267;28;20482;-67
2021/10/10 07:10:30;;;;;;;814.20;29.35;;;;;;;5.00;63.73;101053.47;10385032;28;20092;-66
2021/10/10 07:15:33;;;;;;;416.80;21.65;;;;;;;5.03;63.58;101056.84;10384006;28;20053;-67
2021/10/10 07:25:56;;;;;;;108.40;14.65;;;;;;;5.41;63.18;101056.09;10381948;28;20064;-67
2021/10/10 07:31:00;;;;;;;471.13;22.17;;;;;;;5.63;62.22;101056.50;10382234;28;20050;-67
2021/10/10 07:36:03;;;;;;;502.08;22.73;;;;;;;5.49;62.45;101075.78;10383545;28;20056;-67
2021/10/10 07:41:05;;;;;;;144.45;17.90;;;;;;;5.58;62.72;101072.16;10382111;28;20052;-67
2021/10/10 07:46:32;;;;;;;330.00;22.77;;;;;;;5.85;62.11;101063.78;10382818;28;20128;-67
2021/10/10 07:51:35;;;;;;;92.68;15.70;;;;;;;6.12;61.89;101068.31;10386933;28;20053;-67
2021/10/10 07:56:37;;;;;;;45.75;15.45;;;;;;;6.40;61.58;101070.28;10391386;28;20338;-67
2021/10/10 08:01:38;;;;;;;153.60;15.07;;;;;;;6.53;61.10;101069.09;10391309;28;20710;-67
2021/10/10 08:06:40;;;;;;;148.38;17.15;;;;;;;6.39;61.41;101066.00;10389268;28;20057;-67
2021/10/10 08:11:43;;;;;;;76.05;16.02;;;;;;;6.79;61.32;101057.16;10389990;28;20515;-67
2021/10/10 08:16:44;;;;;;;157.30;17.48;;;;;;;6.99;60.27;101057.47;10387737;28;20076;-67
2021/10/10 08:21:48;;;;;;;86.75;18.02;;;;;;;6.99;60.68;101057.47;10387757;28;20348;-67
2021/10/10 08:26:50;;;;;;;64.47;16.13;;;;;;;7.07;60.77;101062.44;10384626;28;20059;-74
2021/10/10 08:31:51;;;;;;;191.32;21.63;;;;;;;7.33;60.53;101052.16;10383960;28;20054;-73
2021/10/10 08:36:54;;;;;;;108.85;20.52;;;;;;;7.00;61.13;101050.50;10387582;28;20048;-74
2021/10/10 08:41:59;;;;;;;91.72;18.52;;;;;;;7.19;61.19;101062.09;10388203;28;20041;-74
2021/10/10 08:47:06;;;;;;;119.70;18.42;;;;;;;7.29;60.91;101052.28;10386176;28;20049;-74
2021/10/10 08:52:11;;;;;;;39.85;15.60;;;;;;;7.32;61.17;101050.47;10387006;28;20509;-74
2021/10/10 08:57:29;;;;;;;64.57;21.77;;;;;;;7.47;61.26;101062.19;10387042;28;20047;-75
2021/10/10 09:02:32;;;;;;;35.88;19.30;;;;;;;7.44;61.30;101063.13;10385861;28;20080;-75
2021/10/10 09:07:36;;;;;;;137.57;24.27;;;;;;;7.24;61.35;101070.66;10386492;28;20045;-76
2021/10/10 09:12:40;;;;;;;57.13;24.23;;;;;;;7.21;61.35;101062.91;10387961;28;20092;-76
2021/10/10 09:17:51;;;;;;;23.50;18.88;;;;;;;7.33;61.84;101054.75;10387570;28;20053;-76
2021/10/10 09:22:52;;;;;;;24.45;17.83;;;;;;;7.89;60.24;101059.16;10386608;28;20046;-76
2021/10/10 09:27:54;;;;;;;24.92;18.33;;;;;;;8.35;59.28;101055.97;10387391;28;20052;-76
2021/10/10 09:32:59;;;;;;;25.30;17.90;;;;;;;8.57;58.29;101051.72;10385709;28;20080;-75
2021/10/10 09:38:21;;;;;;;25.13;18.27;;;;;;;8.81;57.59;101039.63;10387329;28;20460;-77
2021/10/10 09:43:23;;;;;;;27.45;18.40;;;;;;;9.07;57.33;101041.28;10385894;28;20053;-77
2021/10/10 09:48:31;;;;;;;29.50;18.85;;;;;;;9.07;57.69;101018.66;10384837;28;20053;-78
2021/10/10 09:53:34;;;;;;;23.10;17.35;;;;;;;8.94;58.13;101017.41;10385837;28;20486;-77
2021/10/10 09:58:42;;;;;;;24.30;17.48;;;;;;;8.91;57.66;101012.31;10386646;28;20505;-77
2021/10/10 10:04:04;;;;;;;26.52;18.25;;;;;;;9.08;56.35;101015.13;10386377;28;20061;-77
2021/10/10 10:09:08;;;;;;;24.70;16.60;;;;;;;9.20;57.21;101017.28;10385232;28;20041;-78
2021/10/10 10:14:15;;;;;;;21.80;16.05;;;;;;;9.64;56.67;101011.28;10386081;28;20057;-79
2021/10/10 10:19:19;;;;;;;23.52;15.50;;;;;;;10.09;55.51;101005.16;10385496;28;20648;-77
2021/10/10 10:24:23;;;;;;;22.00;15.70;;;;;;;10.35;55.01;101010.16;10385055;28;20073;-78
2021/10/10 10:29:29;;;;;;;22.80;14.90;;;;;;;10.33;54.40;101014.59;10385872;28;20059;-77
2021/10/10 10:34:33;;;;;;;22.23;15.45;;;;;;;10.70;53.88;101014.75;10385855;28;20422;-75
2021/10/10 10:39:48;;;;;;;20.25;13.85;;;;;;;11.28;52.45;100999.94;10385903;28;20099;-77
2021/10/10 10:44:58;;;;;;;23.35;13.27;;;;;;;11.30;51.58;100996.34;10386182;28;20380;-78
2021/10/10 10:50:02;;;;;;;18.48;12.57;;;;;;;11.08;51.17;100984.28;10383996;28;20062;-78
2021/10/10 10:55:22;;;;;;;16.88;13.32;;;;;;;11.03;51.07;100987.06;10384974;28;20413;-77
2021/10/10 11:00:32;;;;;;;18.08;12.60;;;;;;;11.12;51.57;100978.84;10384937;28;20460;-77
2021/10/10 11:05:45;;;;;;;21.55;12.63;;;;;;;11.20;50.07;100981.97;10385283;28;20049;-79
2021/10/10 11:11:15;;;;;;;18.60;11.90;;;;;;;11.65;48.54;100983.38;10384913;28;20045;-78
2021/10/10 11:16:41;;;;;;;17.52;11.88;;;;;;;11.80;49.75;100980.88;10385012;28;20065;-78
2021/10/10 11:21:44;;;;;;;21.00;12.27;;;;;;;12.02;49.85;100976.28;10385185;28;20045;-78
2021/10/10 11:26:48;;;;;;;19.63;12.52;;;;;;;12.19;49.88;100980.72;10390001;28;20504;-77
2021/10/10 11:31:50;;;;;;;18.98;12.18;;;;;;;12.26;48.95;100968.97;10390228;28;20528;-77
2021/10/10 11:36:56;;;;;;;18.52;12.10;;;;;;;12.35;48.76;100963.31;10392100;28;20050;-76
2021/10/10 11:42:02;;;;;;;20.73;11.70;;;;;;;12.49;47.89;100950.31;10392617;28;20125;-77
2021/10/10 11:47:08;;;;;;;15.77;11.25;;;;;;;12.48;47.39;100932.88;10391518;28;20072;-77
2021/10/10 11:57:20;;;;;;;17.77;11.60;;;;;;;12.61;47.90;100931.31;10391974;28;20057;-75
2021/10/10 12:02:34;;;;;;;16.38;11.23;;;;;;;12.61;46.97;100927.84;10390377;28;20045;-74
2021/10/10 12:07:37;;;;;;;18.42;11.27;;;;;;;12.87;47.62;100920.28;10391151;28;20060;-74
2021/10/10 12:12:39;;;;;;;16.25;11.35;;;;;;;13.09;47.96;100911.25;10390764;28;20057;-74
2021/10/10 12:17:49;;;;;;;22.67;11.52;;;;;;;13.10;47.89;100913.78;10390318;28;20068;-74
2021/10/10 12:23:03;;;;;;;18.10;11.53;;;;;;;13.58;47.17;100902.34;10388766;28;20058;-75
2021/10/10 12:28:11;;;;;;;16.13;11.20;;;;;;;14.09;45.98;100894.09;10390689;28;20476;-74
2021/10/10 12:33:34;;;;;;;18.13;11.63;;;;;;;14.24;45.05;100898.44;10387705;28;20049;-75
2021/10/10 12:38:40;;;;;;;19.58;11.43;;;;;;;14.24;45.33;100895.81;10388873;28;20124;-75
2021/10/10 12:43:43;;;;;;;17.02;11.18;;;;;;;14.37;45.58;100898.56;10389778;28;20049;-74
2021/10/10 12:49:07;;;;;;;18.38;10.77;;;;;;;14.67;44.26;100894.09;10388431;28;20093;-74
2021/10/10 12:54:14;;;;;;;14.63;10.30;;;;;;;14.71;45.11;100882.44;10388201;28;20089;-74
2021/10/10 12:59:25;;;;;;;14.80;9.77;;;;;;;14.72;44.03;100878.00;10388949;28;20506;-74
2021/10/10 13:04:27;;;;;;;20.65;11.20;;;;;;;14.58;45.35;100870.97;10388363;28;20045;-74
2021/10/10 13:09:30;;;;;;;14.07;10.00;;;;;;;14.47;44.57;100850.53;10388472;28;20046;-74
2021/10/10 13:14:32;;;;;;;16.60;10.65;;;;;;;14.51;44.52;100841.53;10386690;28;20076;-74
2021/10/10 13:19:34;;;;;;;18.48;9.57;;;;;;;14.58;43.96;100828.84;10388949;28;20160;-74
2021/10/10 13:24:36;;;;;;;14.35;9.48;;;;;;;14.45;44.55;100843.69;10388026;28;20045;-79
2021/10/10 13:29:37;;;;;;;16.38;10.40;;;;;;;14.49;44.04;100851.31;10387469;28;20053;-74
2021/10/10 13:34:39;;;;;;;14.40;10.10;;;;;;;14.67;43.62;100853.75;10387183;28;20096;-75
2021/10/10 13:39:41;;;;;;;16.40;10.27;;;;;;;14.68;43.90;100843.13;10387573;28;20058;-75
2021/10/10 13:44:42;;;;;;;18.65;10.20;;;;;;;14.56;43.37;100842.09;10386232;28;20564;-74
2021/10/10 13:49:48;;;;;;;13.05;8.38;;;;;;;14.45;43.48;100854.22;10386425;28;20493;-74
2021/10/10 13:54:50;;;;;;;15.57;8.43;;;;;;;14.60;43.38;100858.56;10386995;28;20462;-75
2021/10/10 13:59:52;;;;;;;12.93;8.55;;;;;;;14.57;43.28;100856.13;10385018;28;20568;-74
2021/10/10 14:04:53;;;;;;;14.23;8.18;;;;;;;14.81;42.73;100841.44;10386073;28;20049;-74
2021/10/10 14:09:55;;;;;;;13.07;7.80;;;;;;;14.88;42.72;100836.63;10386601;28;20346;-74
2021/10/10 14:15:00;;;;;;;16.70;8.63;;;;;;;14.88;42.38;100831.34;10385800;28;20157;-74
2021/10/10 14:20:04;;;;;;;13.93;8.52;;;;;;;14.87;42.65;100834.91;10386546;28;20056;-75
2021/10/10 14:25:06;;;;;;;13.25;7.55;;;;;;;14.96;42.29;100823.81;10386372;28;20045;-75
2021/10/10 14:30:12;;;;;;;12.18;7.72;;;;;;;14.88;42.03;100826.09;10385927;28;20075;-74
2021/10/10 14:35:14;;;;;;;12.50;7.80;;;;;;;14.99;42.10;100824.47;10385516;28;20057;-74
2021/10/10 14:40:16;;;;;;;13.55;8.02;;;;;;;15.03;41.79;100822.47;10384742;28;20413;-74
2021/10/10 14:45:26;;;;;;;14.10;7.97;;;;;;;15.05;42.25;100815.31;10385595;28;20054;-74
2021/10/10 14:50:28;;;;;;;11.73;7.47;;;;;;;15.13;42.72;100823.56;10385753;28;20081;-74
2021/10/10 14:55:30;;;;;;;12.82;6.85;;;;;;;15.02;42.89;100812.88;10385075;28;20583;-74
2021/10/10 15:00:33;;;;;;;12.35;7.68;;;;;;;14.95;41.81;100811.56;10388398;28;20144;-75
2021/10/10 15:05:35;;;;;;;12.35;7.30;;;;;;;15.05;42.34;100807.41;10392483;28;20512;-75
2021/10/10 15:10:38;;;;;;;14.93;7.47;;;;;;;14.99;41.49;100800.75;10392859;28;20140;-75
2021/10/10 15:15:41;;;;;;;12.43;7.00;;;;;;;14.95;42.37;100803.66;10392165;28;20057;-75
2021/10/10 15:20:43;;;;;;;11.02;6.63;;;;;;;14.95;42.98;100806.31;10392112;28;20060;-74
2021/10/10 15:25:45;;;;;;;14.45;7.72;;;;;;;14.88;42.81;100795.31;10392865;28;20059;-75
2021/10/10 15:30:47;;;;;;;11.73;7.32;;;;;;;14.84;42.92;100796.44;10392489;28;20065;-75
2021/10/10 15:35:56;;;;;;;11.82;7.15;;;;;;;14.73;42.96;100795.44;10392529;28;20053;-75
2021/10/10 15:41:00;;;;;;;10.45;7.20;;;;;;;14.68;43.04;100786.97;10390588;28;20060;-75
2021/10/10 15:46:02;;;;;;;17.35;8.10;;;;;;;14.54;43.30;100790.50;10391143;28;20750;-76
2021/10/10 15:51:04;;;;;;;11.30;7.35;;;;;;;14.31;44.21;100783.97;10392225;28;20050;-76
2021/10/10 15:56:05;;;;;;;11.80;7.00;;;;;;;14.08;44.79;100779.31;10389636;28;20410;-74
2021/10/10 16:01:07;;;;;;;10.50;6.55;;;;;;;13.85;45.55;100784.22;10391530;28;20072;-74
2021/10/10 16:06:09;;;;;;;10.55;7.05;;;;;;;13.58;46.19;100781.44;10391507;28;20520;-75
2021/10/10 16:11:11;;;;;;;11.65;6.60;;;;;;;13.29;47.37;100790.16;10389247;28;20129;-76
2021/10/10 16:16:12;;;;;;;13.75;6.82;;;;;;;13.02;47.97;100799.59;10390202;28;20064;-76
2021/10/10 16:21:15;;;;;;;9.35;6.53;;;;;;;12.74;49.11;100810.78;10390202;28;20051;-75
2021/10/10 16:26:20;;;;;;;11.05;6.43;;;;;;;12.47;50.28;100804.41;10388967;28;20055;-75
2021/10/10 16:31:22;;;;;;;10.70;6.80;;;;;;;12.18;50.34;100811.16;10390005;28;20057;-76
2021/10/10 16:36:26;;;;;;;11.82;6.70;;;;;;;11.87;50.93;100805.78;10390655;28;20480;-76
2021/10/10 16:46:29;;;;;;;18.02;8.98;;;;;;;11.27;53.15;100813.16;10390394;28;20557;-75
2021/10/10 16:51:31;;;;;;;11.45;7.93;;;;;;;11.03;53.93;100824.78;10387794;28;20111;-76
2021/10/10 16:56:33;;;;;;;13.00;8.02;;;;;;;10.79;54.69;100820.69;10389618;28;20061;-75
2021/10/10 17:01:35;;;;;;;10.32;7.75;;;;;;;10.58;55.23;100836.56;10389552;28;20769;-76
2021/10/10 17:06:37;;;;;;;13.20;8.68;;;;;;;10.37;56.00;100840.97;10388833;28;20056;-75
2021/10/10 17:11:40;;;;;;;12.27;8.55;;;;;;;10.18;56.63;100833.09;10389075;28;20055;-75
2021/10/10 17:16:50;;;;;;;13.15;8.73;;;;;;;9.97;56.99;100835.78;10388212;28;20049;-75
2021/10/10 17:21:54;;;;;;;14.00;8.13;;;;;;;9.76;57.55;100837.53;10388016;28;20408;-76
2021/10/10 17:26:56;;;;;;;10.75;7.82;;;;;;;9.64;57.99;100840.66;10388747;28;20059;-76
2021/10/10 17:31:58;;;;;;;12.77;7.93;;;;;;;9.52;58.47;100841.16;10388062;28;20136;-76
2021/10/10 17:36:59;;;;;;;11.80;8.35;;;;;;;9.40;58.74;100837.25;10387117;28;20049;-75
2021/10/10 17:42:01;;;;;;;10.65;7.97;;;;;;;9.21;59.23;100836.31;10387430;28;20080;-76
2021/10/10 17:47:04;;;;;;;11.70;8.23;;;;;;;9.10;59.48;100845.44;10387131;28;20045;-76
2021/10/10 17:52:06;;;;;;;12.27;8.18;;;;;;;8.98;59.95;100844.19;10387294;28;20508;-77
2021/10/10 17:57:08;;;;;;;11.90;8.27;;;;;;;8.88;60.28;100848.06;10385734;28;20456;-77
2021/10/10 18:02:20;;;;;;;12.75;8.70;;;;;;;8.75;60.42;100850.28;10386816;28;20425;-76
2021/10/10 18:12:26;;;;;;;14.50;8.77;;;;;;;8.58;60.73;100850.06;10385740;28;20128;-76
2021/10/10 18:17:29;;;;;;;14.73;8.73;;;;;;;8.50;60.98;100846.91;10385919;28;20488;-76
2021/10/10 18:22:31;;;;;;;19.17;10.45;;;;;;;8.44;61.29;100841.06;10387171;28;20631;-76
2021/10/10 18:27:33;;;;;;;14.90;9.43;;;;;;;8.38;61.45;100852.56;10386251;28;20053;-75
2021/10/10 18:32:35;;;;;;;14.00;9.15;;;;;;;8.33;61.38;100851.00;10385096;28;20429;-75
2021/10/10 18:37:37;;;;;;;14.05;9.18;;;;;;;8.23;61.50;100858.31;10383924;28;20417;-76
2021/10/10 18:42:39;;;;;;;15.63;9.48;;;;;;;8.15;61.31;100859.47;10383552;28;20509;-75
2021/10/10 18:47:41;;;;;;;12.00;9.57;;;;;;;8.03;61.72;100866.81;10384805;28;20199;-75
2021/10/10 18:52:43;;;;;;;14.65;9.60;;;;;;;7.96;61.68;100869.66;10385080;28;20054;-76
2021/10/10 18:57:44;;;;;;;15.68;9.43;;;;;;;7.88;61.89;100874.25;10385978;28;20107;-75
2021/10/10 19:02:48;;;;;;;12.15;9.65;;;;;;;7.79;62.10;100877.19;10383272;28;20057;-76
2021/10/10 19:07:50;;;;;;;13.35;8.95;;;;;;;7.70;62.27;100878.34;10384377;28;20084;-76
2021/10/10 19:13:08;;;;;;;15.68;8.77;;;;;;;7.63;62.15;100876.81;10384596;28;20054;-76
2021/10/10 19:18:10;;;;;;;13.52;9.57;;;;;;;7.61;62.35;100873.44;10384403;28;20056;-75
2021/10/10 19:23:12;;;;;;;12.88;10.23;;;;;;;7.58;62.19;100872.69;10384073;28;20060;-76
2021/10/10 19:28:14;;;;;;;13.35;9.93;;;;;;;7.49;62.31;100878.19;10385000;28;20049;-76
2021/10/10 19:33:16;;;;;;;14.13;10.07;;;;;;;7.43;62.47;100876.63;10382329;28;20114;-76
2021/10/10 19:38:17;;;;;;;16.63;10.32;;;;;;;7.39;62.48;100885.44;10384669;28;20052;-76
2021/10/10 19:43:19;;;;;;;12.98;9.55;;;;;;;7.36;62.69;100893.34;10385118;28;20060;-76
2021/10/10 19:48:22;;;;;;;16.60;10.90;;;;;;;7.27;62.85;100885.81;10390442;28;20377;-76
2021/10/10 19:53:23;;;;;;;13.60;10.50;;;;;;;7.23;62.86;100892.00;10392129;28;20063;-75
2021/10/10 19:58:25;;;;;;;16.55;10.68;;;;;;;7.12;62.84;100905.34;10385740;28;20045;-75
2021/10/10 20:03:27;;;;;;;16.05;10.30;;;;;;;7.08;62.82;100906.34;10387846;28;20490;-75
2021/10/10 20:08:30;;;;;;;13.45;9.52;;;;;;;7.06;62.93;100909.91;10386398;28;20046;-76
2021/10/10 20:13:36;;;;;;;13.85;10.30;;;;;;;7.01;63.05;100909.16;10388523;28;20050;-76
2021/10/10 20:18:39;;;;;;;15.25;9.55;;;;;;;6.93;63.33;100912.00;10388326;28;20057;-75
2021/10/10 20:23:40;;;;;;;16.02;10.15;;;;;;;6.90;62.88;100913.81;10384902;28;20057;-75
2021/10/10 20:28:42;;;;;;;15.35;10.80;;;;;;;6.79;63.13;100910.69;10380759;28;20059;-75
2021/10/10 20:33:44;;;;;;;16.13;9.55;;;;;;;6.69;63.46;100924.84;10387511;28;20053;-74
2021/10/10 20:38:46;;;;;;;13.93;10.80;;;;;;;6.60;63.22;100914.69;10387223;28;20049;-75
2021/10/10 20:43:48;;;;;;;17.15;10.75;;;;;;;6.48;63.15;100915.91;10385781;28;20393;-75
2021/10/10 20:48:50;;;;;;;15.05;10.40;;;;;;;6.37;63.16;100919.69;10387203;28;20409;-76
2021/10/10 20:53:51;;;;;;;12.90;10.40;;;;;;;6.28;63.61;100913.84;10389217;28;20053;-75
2021/10/10 20:58:53;;;;;;;13.07;9.82;;;;;;;6.28;63.68;100920.78;10386720;28;20099;-76
2021/10/10 21:03:55;;;;;;;14.60;10.15;;;;;;;6.22;63.41;100916.59;10384310;28;20539;-76
2021/10/10 21:08:56;;;;;;;17.70;10.80;;;;;;;6.17;63.56;100922.75;10386779;28;20053;-75
2021/10/10 21:13:58;;;;;;;13.90;10.48;;;;;;;6.13;63.71;100939.31;10387229;28;20426;-75
2021/10/10 21:19:00;;;;;;;13.48;10.23;;;;;;;6.10;63.70;100945.44;10385323;28;20045;-75
2021/10/10 21:24:05;;;;;;;15.25;10.32;;;;;;;6.08;63.69;100934.22;10384803;28;20417;-75
2021/10/10 21:29:10;;;;;;;14.13;10.50;;;;;;;5.98;63.75;100930.16;10384632;28;20040;-75
2021/10/10 21:34:25;;;;;;;15.98;9.65;;;;;;;5.95;63.90;100929.41;10387463;28;20227;-75
2021/10/10 21:39:27;;;;;;;13.77;9.75;;;;;;;5.90;63.77;100934.69;10387073;28;20045;-77
2021/10/10 21:44:29;;;;;;;15.50;10.55;;;;;;;5.90;63.79;100934.69;10386306;28;20053;-64
2021/10/10 21:49:30;;;;;;;16.63;10.02;;;;;;;5.81;63.64;100932.34;10386607;28;20060;-64
2021/10/10 21:54:33;;;;;;;16.65;9.98;;;;;;;5.79;63.74;100936.72;10385512;28;20521;-64
2021/10/10 21:59:39;;;;;;;13.43;10.30;;;;;;;5.74;63.86;100923.00;10371538;28;20144;-64
2021/10/10 22:04:41;;;;;;;13.60;9.65;;;;;;;5.67;63.98;100918.84;10383363;28;20494;-64
2021/10/10 22:09:43;;;;;;;13.68;9.40;;;;;;;5.64;63.89;100918.91;10382984;28;20568;-64
2021/10/10 22:14:44;;;;;;;15.50;10.10;;;;;;;5.61;64.16;100912.94;10383458;28;20511;-63
2021/10/10 22:19:46;;;;;;;13.27;9.88;;;;;;;5.60;63.90;100913.81;10384384;28;20053;-64
2021/10/10 22:24:52;;;;;;;11.48;9.25;;;;;;;5.59;63.68;100920.78;10386149;28;20497;-64
2021/10/10 22:35:15;;;;;;;17.00;11.63;;;;;;;5.48;63.56;100917.56;10384052;28;20488;-64
2021/10/10 22:40:19;;;;;;;14.60;11.23;;;;;;;5.39;63.65;100916.03;10383345;28;20509;-64
2021/10/10 22:45:20;;;;;;;15.30;10.82;;;;;;;5.14;63.64;100934.78;10383799;28;20052;-64
2021/10/10 22:50:22;;;;;;;12.43;10.05;;;;;;;4.92;63.96;100915.41;10381409;28;20049;-63
2021/10/10 22:55:24;;;;;;;14.07;10.38;;;;;;;5.02;64.13;100922.94;10385285;28;20420;-63
2021/10/10 23:00:26;;;;;;;15.15;10.93;;;;;;;5.03;63.71;100910.81;10384514;28;20493;-63
2021/10/10 23:05:27;;;;;;;44.95;11.55;;;;;;;4.95;64.03;100912.72;10384982;28;20045;-64
2021/10/10 23:10:29;;;;;;;103.32;12.27;;;;;;;4.91;64.48;100903.31;10382024;28;20436;-64
2021/10/10 23:15:31;;;;;;;29.65;11.25;;;;;;;4.90;64.14;100899.03;10381776;28;20063;-63
2021/10/10 23:20:33;;;;;;;50.63;10.60;;;;;;;4.90;64.22;100909.38;10386524;28;20080;-63
2021/10/10 23:25:35;;;;;;;108.65;12.73;;;;;;;4.73;64.42;100889.00;10391680;28;21188;-63